»·PEaware :: N128LV KBUR-L71

N128LV :: KBUR-L71

FLIGHT INFORMATION

Flight Status: Arrived
Operator: Privately registered:
United States
More flights under this callsign
Pilot: Matthew M. (2702)
Aircraft: BEECH AIRCRAFT 300 SUPER KING AIR
(BE30)
More flights by this aircraft type
Origin: KBUR Bob Hope-Burbank
United States
Destination: L71 California City Mun
United States
More flights between these airports :: More routes between these airports
Route: VNY9 TWINE GOVVE
File this flight plan on PilotEdge
Remarks: / V /
Altitude:
(Current/Filed)
12,000ft
Speed:
(Current/Filed)
260kts
Departed: 10-Dec-13 04:31 PM
Arrived: 10-Dec-13 04:57 PM
Distance/Time
Traveled:
59nm/0:26
Distance/Time
To Go:
Arrived

Flight Plot

Page will automatically refresh every two minutes.


Map Options




Map Legend


Flown Route
Filed Route
Departure Airport
Arrival Airport
Navaid (VOR, NDB)
Fix

Horizontal Profiles

Position Reports

Time Latitude Longitude Heading Altitude Ground
Speed
10-Dec-13 15:42 34.200153 -118.364244 357 782ft 0kts
10-Dec-13 15:43 34.200153 -118.364244 357 782ft 0kts
10-Dec-13 15:44 34.200153 -118.364244 357 782ft 0kts
10-Dec-13 15:45 34.200153 -118.364244 357 782ft 0kts
10-Dec-13 15:46 34.200153 -118.364244 357 782ft 0kts
10-Dec-13 15:47 34.200153 -118.364244 357 782ft 0kts
10-Dec-13 15:48 34.200153 -118.364244 357 782ft 0kts
10-Dec-13 15:49 34.200153 -118.364244 357 782ft 0kts
10-Dec-13 15:50 34.200153 -118.364244 357 782ft 0kts
10-Dec-13 15:51 34.200153 -118.364244 357 782ft 0kts
10-Dec-13 15:52 34.200153 -118.364244 357 782ft 0kts
10-Dec-13 15:53 34.200153 -118.364244 357 782ft 0kts
10-Dec-13 15:54 34.200153 -118.364244 357 782ft 0kts
10-Dec-13 15:55 34.200153 -118.364244 357 782ft 0kts
10-Dec-13 15:56 34.200153 -118.364244 357 782ft 0kts
10-Dec-13 15:57 34.200153 -118.364244 357 782ft 0kts
10-Dec-13 15:58 34.200153 -118.364244 357 782ft 0kts
10-Dec-13 15:59 34.200153 -118.364244 357 782ft 0kts
10-Dec-13 16:00 34.200153 -118.364244 357 782ft 0kts
10-Dec-13 16:01 34.200153 -118.364244 357 782ft 0kts
10-Dec-13 16:02 34.200153 -118.364244 357 782ft 0kts
10-Dec-13 16:03 34.200153 -118.364244 357 782ft 0kts
10-Dec-13 16:04 34.200153 -118.364244 357 782ft 0kts
10-Dec-13 16:05 34.200153 -118.364244 357 782ft 0kts
10-Dec-13 16:06 34.200153 -118.364244 357 782ft 0kts
10-Dec-13 16:07 34.200153 -118.364245 357 782ft 0kts
10-Dec-13 16:08 34.200156 -118.364245 357 782ft 0kts
10-Dec-13 16:09 34.200159 -118.364245 357 782ft 0kts
10-Dec-13 16:10 34.200162 -118.364245 357 782ft 0kts
10-Dec-13 16:11 34.200165 -118.364245 357 782ft 0kts
10-Dec-13 16:12 34.200168 -118.364245 357 782ft 0kts
10-Dec-13 16:13 34.200171 -118.364245 357 782ft 0kts
10-Dec-13 16:14 34.200174 -118.364246 357 782ft 0kts
10-Dec-13 16:15 34.200177 -118.364246 357 782ft 0kts
10-Dec-13 16:16 34.200180 -118.364246 357 782ft 0kts
10-Dec-13 16:17 34.200183 -118.364246 357 782ft 0kts
10-Dec-13 16:18 34.200186 -118.364246 357 782ft 0kts
10-Dec-13 16:19 34.200189 -118.364246 357 782ft 0kts
10-Dec-13 16:20 34.200191 -118.364247 357 782ft 0kts
10-Dec-13 16:21 34.200194 -118.364247 357 782ft 0kts
10-Dec-13 16:22 34.200196 -118.364247 357 782ft 0kts
10-Dec-13 16:23 34.200227 -118.364257 333 782ft 1kts
10-Dec-13 16:24 34.198971 -118.365470 265 782ft 9kts
10-Dec-13 16:25 34.199043 -118.368844 237 782ft 0kts
10-Dec-13 16:26 34.198634 -118.369055 163 782ft 0kts
10-Dec-13 16:27 34.198629 -118.369054 163 782ft 0kts
10-Dec-13 16:28 34.198625 -118.369052 163 782ft 0kts
10-Dec-13 16:29 34.198620 -118.369050 163 782ft 0kts
10-Dec-13 16:30 34.197906 -118.366406 91 782ft 64kts
10-Dec-13 16:31 34.189214 -118.319540 135 1970ft 188kts
10-Dec-13 16:32 34.137797 -118.323668 215 3425ft 211kts
10-Dec-13 16:33 34.123686 -118.386020 292 4814ft 216kts
10-Dec-13 16:34 34.151507 -118.453496 300 6223ft 233kts
10-Dec-13 16:35 34.187828 -118.518031 319 7605ft 240kts
10-Dec-13 16:36 34.231315 -118.558238 326 8748ft 243kts
10-Dec-13 16:37 34.288662 -118.602104 338 10136ft 245kts
10-Dec-13 16:38 34.355471 -118.600836 16 11558ft 242kts
10-Dec-13 16:39 34.422615 -118.574134 21 11909ft 263kts
10-Dec-13 16:40 34.492444 -118.544410 21 11955ft 266kts
10-Dec-13 16:41 34.562969 -118.515129 21 11968ft 268kts
10-Dec-13 16:42 34.633968 -118.485691 20 11971ft 269kts
10-Dec-13 16:43 34.704787 -118.456181 21 12008ft 268kts
10-Dec-13 16:44 34.775657 -118.422425 18 11452ft 283kts
10-Dec-13 16:45 34.850954 -118.395908 18 10491ft 279kts
10-Dec-13 16:46 34.919315 -118.368208 27 9517ft 241kts
10-Dec-13 16:47 34.970553 -118.323920 46 8289ft 209kts
10-Dec-13 16:48 35.008941 -118.275899 49 6927ft 169kts
10-Dec-13 16:49 35.036999 -118.240107 48 5685ft 146kts
10-Dec-13 16:50 35.062824 -118.202308 49 5103ft 137kts
10-Dec-13 16:51 35.084034 -118.164391 56 5082ft 133kts
10-Dec-13 16:52 35.103048 -118.123135 58 4143ft 141kts
10-Dec-13 16:53 35.122949 -118.083238 48 3499ft 136kts
10-Dec-13 16:54 35.144914 -118.047382 74 3005ft 137kts
10-Dec-13 16:55 35.152482 -118.010888 74 2458ft 67kts
10-Dec-13 16:56 35.151698 -118.012647 242 2458ft 30kts
10-Dec-13 16:57 35.149852 -118.013853 262 2458ft 0kts
10-Dec-13 16:58 35.149852 -118.013858 262 2458ft 0kts
10-Dec-13 17:01 35.149853 -118.013861 262 2458ft 0kts
10-Dec-13 17:02 35.149853 -118.013861 262 2458ft 0kts
10-Dec-13 17:03 35.149852 -118.013863 262 2458ft 0kts
10-Dec-13 17:04 35.149852 -118.013870 261 2458ft 0kts
10-Dec-13 17:05 35.149777 -118.020485 256 2458ft 49kts
10-Dec-13 17:06 35.149816 -118.023378 74 2458ft 13kts
10-Dec-13 17:07 35.151519 -117.979398 112 3284ft 190kts
10-Dec-13 17:08 35.109897 -117.979955 251 3735ft 195kts
10-Dec-13 17:09 35.115445 -118.043720 313 3701ft 202kts
10-Dec-13 17:10 35.151691 -118.091575 286 3711ft 185kts

Navigation Log

Ident Type
1. KBUR Airport
2. TWINE Fix
3. GOVVE Fix
4. L71 Airport